Time;durP1;ratioP1;P1;durP2;ratioP2;P2;SDS_P1;SDS_P2;PMS_P1;PMS_P2;Temp;Humidity;BMP_temperature;BMP_pressure;BME280_temperature;BME280_humidity;BME280_pressure;Samples;Min_cycle;Max_cycle;Signal;HPM_P1;HPM_P2
2022/12/09 00:04:46;;;;;;;25.67;14.77;;;;;;;1.04;100.00;99900.47;5262520;54;1138641;-70
2022/12/09 00:09:53;;;;;;;24.87;13.83;;;;;;;1.03;100.00;99897.94;5139808;54;1138904;-69
2022/12/09 00:14:58;;;;;;;31.00;15.87;;;;;;;1.02;100.00;99893.19;5123807;56;1138876;-70
2022/12/09 00:20:05;;;;;;;27.03;15.17;;;;;;;1.05;100.00;99893.50;5104407;56;1138762;-69
2022/12/09 00:25:12;;;;;;;33.73;16.33;;;;;;;1.13;100.00;99895.26;5104218;56;1138869;-71
2022/12/09 00:30:18;;;;;;;28.50;15.00;;;;;;;1.13;100.00;99891.81;5124598;56;1138772;-67
2022/12/09 00:35:23;;;;;;;33.27;16.90;;;;;;;1.11;100.00;99891.88;5167909;54;1140282;-68
2022/12/09 00:40:30;;;;;;;35.33;17.63;;;;;;;1.16;100.00;99892.97;5281185;54;1138680;-69
2022/12/09 00:45:35;;;;;;;25.57;15.67;;;;;;;1.23;100.00;99901.70;5284320;54;1139148;-72
2022/12/09 00:50:41;;;;;;;28.27;14.97;;;;;;;1.25;100.00;99911.58;5130867;54;1138945;-69
2022/12/09 00:55:48;;;;;;;31.37;16.42;;;;;;;1.25;100.00;99918.09;5168999;55;1138801;-70
2022/12/09 01:00:54;;;;;;;34.10;16.43;;;;;;;1.21;100.00;99919.19;5189069;55;1138754;-69
2022/12/09 01:06:00;;;;;;;34.27;16.33;;;;;;;1.22;100.00;99929.14;5198880;55;1138813;-70
2022/12/09 01:11:20;;;;;;;29.70;16.00;;;;;;;1.21;100.00;99933.52;5178779;54;1138739;-68
2022/12/09 01:16:29;;;;;;;29.00;16.27;;;;;;;1.18;100.00;99932.81;5150259;55;1138830;-67
2022/12/09 01:21:35;;;;;;;33.10;17.07;;;;;;;1.21;100.00;99923.55;5198956;55;1138637;-69
2022/12/09 01:26:42;;;;;;;36.40;19.73;;;;;;;1.26;100.00;99918.48;5178179;55;1138712;-72
2022/12/09 01:31:48;;;;;;;33.92;17.50;;;;;;;1.32;100.00;99916.89;5161335;55;1138878;-69
2022/12/09 01:36:54;;;;;;;33.37;18.13;;;;;;;1.27;100.00;99923.23;5120755;55;1138870;-68
2022/12/09 01:42:05;;;;;;;38.50;17.97;;;;;;;1.20;100.00;99929.67;5125090;55;1138707;-72
2022/12/09 01:47:20;;;;;;;33.93;19.17;;;;;;;1.16;100.00;99934.18;5202658;54;1138760;-70
2022/12/09 01:52:25;;;;;;;29.92;17.77;;;;;;;1.10;100.00;99936.22;5147841;55;1138718;-71
2022/12/09 01:57:32;;;;;;;34.33;17.25;;;;;;;1.12;100.00;99944.81;5123134;55;1138913;-70
2022/12/09 02:02:40;;;;;;;36.73;18.83;;;;;;;1.09;100.00;99951.00;5148102;55;1138866;-71
2022/12/09 02:07:45;;;;;;;35.97;19.77;;;;;;;1.08;100.00;99942.80;5178123;55;1138792;-69
2022/12/09 02:13:19;;;;;;;39.63;19.45;;;;;;;1.08;100.00;99945.86;5176381;55;1138774;-72
2022/12/09 02:18:51;;;;;;;42.07;19.87;;;;;;;1.04;100.00;99939.98;5194527;55;1139603;-69
2022/12/09 02:24:03;;;;;;;42.03;18.97;;;;;;;1.07;100.00;99944.20;5147733;55;1138724;-69
2022/12/09 02:29:26;;;;;;;37.07;18.33;;;;;;;1.12;100.00;99939.60;5122510;55;1138717;-68
2022/12/09 02:34:35;;;;;;;47.50;21.73;;;;;;;1.24;100.00;99935.09;5109552;55;1138704;-67
2022/12/09 02:39:49;;;;;;;46.57;22.53;;;;;;;1.34;100.00;99940.27;5131191;55;1138820;-68
2022/12/09 02:44:58;;;;;;;100.03;34.27;;;;;;;1.38;100.00;99943.08;5101036;55;1138866;-69
2022/12/09 02:50:09;;;;;;;44.90;22.00;;;;;;;1.43;100.00;99950.22;5101746;56;1140780;-68
2022/12/09 02:55:19;;;;;;;43.73;20.37;;;;;;;1.37;100.00;99956.59;5122579;55;1138743;-69
2022/12/09 03:00:26;;;;;;;44.10;21.83;;;;;;;1.40;100.00;99952.52;5116282;55;1138763;-69
2022/12/09 03:05:38;;;;;;;43.30;21.15;;;;;;;1.51;100.00;99957.22;5194914;54;1138870;-68
2022/12/09 03:11:04;;;;;;;39.13;20.40;;;;;;;1.44;100.00;99959.72;5233224;55;1138717;-68
2022/12/09 03:16:33;;;;;;;42.37;19.23;;;;;;;1.35;100.00;99951.91;5212999;55;1138927;-70
2022/12/09 03:21:42;;;;;;;35.50;19.95;;;;;;;1.30;100.00;99959.55;5212885;55;1138765;-69
2022/12/09 03:26:52;;;;;;;38.87;20.50;;;;;;;1.26;100.00;99957.55;5213098;55;1138804;-71
2022/12/09 03:31:59;;;;;;;37.80;18.77;;;;;;;1.26;100.00;99945.83;5213307;55;1138749;-69
2022/12/09 03:37:11;;;;;;;40.83;20.37;;;;;;;1.27;100.00;99948.82;5085422;56;1138903;-70
2022/12/09 03:42:29;;;;;;;47.90;22.87;;;;;;;1.21;100.00;99943.08;5213017;55;1138633;-67
2022/12/09 03:47:36;;;;;;;43.00;22.10;;;;;;;1.16;100.00;99941.16;5235209;54;1138904;-68
2022/12/09 03:52:48;;;;;;;44.33;21.93;;;;;;;1.13;100.00;99947.80;5257438;54;1138731;-69
2022/12/09 03:57:58;;;;;;;39.73;19.93;;;;;;;1.14;100.00;99944.28;5233589;54;1138738;-70
2022/12/09 04:03:04;;;;;;;50.30;23.63;;;;;;;1.17;100.00;99944.14;5242292;54;1138834;-68
2022/12/09 04:08:11;;;;;;;45.33;22.70;;;;;;;1.18;100.00;99945.38;5234217;54;1139013;-68
2022/12/09 04:13:17;;;;;;;40.70;21.73;;;;;;;1.16;100.00;99944.59;5214069;54;1138790;-68
2022/12/09 04:18:23;;;;;;;44.47;22.10;;;;;;;1.15;100.00;99939.00;5214017;54;1138977;-70
2022/12/09 04:23:29;;;;;;;47.83;23.50;;;;;;;1.17;100.00;99942.84;5234307;54;1138984;-70
2022/12/09 04:28:35;;;;;;;50.93;24.43;;;;;;;1.16;100.00;99945.06;5213949;54;1138937;-70
2022/12/09 04:33:42;;;;;;;56.93;25.47;;;;;;;1.18;100.00;99936.72;5224248;54;1138928;-70
2022/12/09 04:38:49;;;;;;;55.87;25.30;;;;;;;1.22;100.00;99942.98;5311165;54;1139025;-71
2022/12/09 04:43:55;;;;;;;60.40;26.63;;;;;;;1.25;100.00;99945.45;5315176;54;1138694;-69
2022/12/09 04:49:01;;;;;;;52.13;23.87;;;;;;;1.22;100.00;99946.89;5298196;54;1138662;-67
2022/12/09 04:54:07;;;;;;;48.02;24.25;;;;;;;1.11;100.00;99953.08;5275867;54;1138838;-71
2022/12/09 04:59:13;;;;;;;51.00;24.47;;;;;;;1.07;100.00;99950.72;5295408;54;1138818;-70
2022/12/09 05:04:18;;;;;;;60.07;26.97;;;;;;;1.11;100.00;99955.69;5189496;54;1139009;-68
2022/12/09 05:09:24;;;;;;;84.03;31.70;;;;;;;1.11;100.00;99959.59;5206174;53;1139028;-68
2022/12/09 05:14:31;;;;;;;107.22;35.33;;;;;;;1.18;100.00;99961.45;5135736;55;1138849;-71
2022/12/09 05:19:37;;;;;;;121.13;30.20;;;;;;;1.20;100.00;99972.65;5182121;54;1140920;-70
2022/12/09 05:24:43;;;;;;;115.93;43.73;;;;;;;1.15;100.00;99967.65;5181870;54;1140821;-66
2022/12/09 05:29:49;;;;;;;52.33;22.63;;;;;;;1.12;100.00;99973.45;5178467;55;1141116;-69
2022/12/09 05:34:55;;;;;;;58.03;21.87;;;;;;;1.04;100.00;99973.84;5169747;54;1138978;-68
2022/12/09 05:40:01;;;;;;;44.30;20.68;;;;;;;0.87;100.00;99974.62;5163213;54;1139013;-70
2022/12/09 05:45:07;;;;;;;58.52;20.85;;;;;;;0.81;100.00;99976.66;5112431;55;1138875;-66
2022/12/09 05:50:12;;;;;;;47.70;18.80;;;;;;;0.82;100.00;99971.37;5148866;55;1138757;-70
2022/12/09 05:55:18;;;;;;;34.67;18.03;;;;;;;0.86;100.00;99972.93;5180176;54;1138838;-69
2022/12/09 06:00:24;;;;;;;86.70;22.50;;;;;;;0.93;100.00;99976.92;5151773;54;1138789;-72
2022/12/09 06:05:30;;;;;;;143.33;23.33;;;;;;;1.01;100.00;99973.97;5197631;54;1138768;-70
2022/12/09 06:10:40;;;;;;;60.83;21.50;;;;;;;1.04;100.00;99968.17;5155800;55;1141259;-69
2022/12/09 06:15:46;;;;;;;56.00;20.33;;;;;;;1.04;100.00;99972.08;5182946;55;1138951;-67
2022/12/09 06:20:51;;;;;;;54.53;22.65;;;;;;;1.04;100.00;99975.98;5136449;54;1138945;-69
2022/12/09 06:25:57;;;;;;;48.00;20.73;;;;;;;1.10;100.00;99976.59;5126891;55;1138780;-70
2022/12/09 06:31:03;;;;;;;71.57;22.77;;;;;;;1.02;100.00;99979.56;5101519;55;1138782;-67
2022/12/09 06:36:09;;;;;;;127.73;47.47;;;;;;;0.94;100.00;99987.72;5147138;55;1138786;-66
2022/12/09 06:41:16;;;;;;;95.70;30.93;;;;;;;0.97;100.00;99987.59;5196601;55;1140848;-68
2022/12/09 06:46:24;;;;;;;74.53;29.50;;;;;;;0.93;100.00;99997.75;5114271;55;1138757;-68
2022/12/09 06:51:30;;;;;;;98.33;37.83;;;;;;;0.91;100.00;100000.91;5134785;55;1138744;-69
2022/12/09 06:56:36;;;;;;;62.23;24.12;;;;;;;0.86;100.00;99991.16;5121897;54;1140945;-68
2022/12/09 07:01:41;;;;;;;65.43;20.87;;;;;;;0.85;100.00;100000.33;5133442;55;1138791;-71
2022/12/09 07:06:47;;;;;;;118.13;23.10;;;;;;;0.92;100.00;100006.92;5195326;54;1140853;-68
2022/12/09 07:11:53;;;;;;;126.27;33.43;;;;;;;0.93;100.00;99999.51;5265842;54;1142991;-69
2022/12/09 07:16:58;;;;;;;177.97;59.53;;;;;;;0.92;100.00;99998.66;5237236;54;1140954;-67
2022/12/09 07:22:04;;;;;;;85.93;28.53;;;;;;;0.84;100.00;99998.19;5242527;54;1141056;-68
2022/12/09 07:27:13;;;;;;;43.70;19.70;;;;;;;0.80;100.00;100000.99;5279325;54;1138867;-69
2022/12/09 07:32:18;;;;;;;30.00;13.43;;;;;;;0.75;100.00;100005.58;5232696;54;1140938;-68
2022/12/09 07:37:24;;;;;;;28.10;13.57;;;;;;;0.68;100.00;100027.97;5143602;55;1140794;-70
2022/12/09 07:42:31;;;;;;;26.93;14.07;;;;;;;0.57;100.00;100029.37;5153592;55;1140931;-71
2022/12/09 07:47:38;;;;;;;32.27;16.57;;;;;;;0.51;100.00;100027.88;5160036;54;1140905;-71
2022/12/09 07:52:44;;;;;;;40.65;17.37;;;;;;;0.58;100.00;100024.10;5258387;54;1140913;-68
2022/12/09 07:57:50;;;;;;;33.80;16.67;;;;;;;0.66;100.00;100015.94;5284924;54;1140782;-69
2022/12/09 08:02:55;;;;;;;36.95;15.90;;;;;;;0.66;100.00;100014.18;5243876;54;1140784;-71
2022/12/09 08:08:01;;;;;;;31.93;15.10;;;;;;;0.74;100.00;100026.02;5212317;54;1140798;-67
2022/12/09 08:13:06;;;;;;;28.00;14.03;;;;;;;0.81;100.00;100025.66;5205557;54;1140783;-71
2022/12/09 08:18:12;;;;;;;28.47;13.17;;;;;;;0.73;100.00;100033.44;5204850;55;1140867;-69
2022/12/09 08:23:17;;;;;;;36.70;16.77;;;;;;;0.56;100.00;100042.84;5220597;55;1140808;-71
2022/12/09 08:28:25;;;;;;;40.83;19.43;;;;;;;0.44;100.00;100050.34;5202223;55;1140773;-69
2022/12/09 08:33:33;;;;;;;43.23;18.27;;;;;;;0.37;100.00;100047.60;5175036;55;1140808;-69
2022/12/09 08:38:38;;;;;;;32.00;15.07;;;;;;;0.39;100.00;100047.92;5132752;55;1140772;-66
2022/12/09 08:43:45;;;;;;;31.73;13.90;;;;;;;0.44;100.00;100049.04;5129336;56;1140802;-68
2022/12/09 08:48:51;;;;;;;36.00;15.43;;;;;;;0.45;100.00;100049.43;5073739;56;1140792;-66
2022/12/09 08:53:58;;;;;;;36.57;16.70;;;;;;;0.44;100.00;100054.23;5125230;55;1141017;-72
2022/12/09 08:59:04;;;;;;;29.97;14.47;;;;;;;0.46;100.00;100056.33;5099617;56;1140851;-72
2022/12/09 09:04:14;;;;;;;27.67;13.27;;;;;;;0.51;100.00;100055.64;5180004;55;1140839;-68
2022/12/09 09:09:21;;;;;;;25.32;13.80;;;;;;;0.48;100.00;100053.17;5120851;55;1140850;-73
2022/12/09 09:14:27;;;;;;;29.47;14.27;;;;;;;0.38;100.00;100049.29;5164376;55;1140772;-70
2022/12/09 09:19:34;;;;;;;37.73;18.10;;;;;;;0.30;100.00;100052.23;5199201;54;1140955;-72
2022/12/09 09:24:40;;;;;;;30.55;15.23;;;;;;;0.32;100.00;100052.53;5215285;54;1140701;-72
2022/12/09 09:29:45;;;;;;;35.27;17.23;;;;;;;0.37;100.00;100050.20;5270006;54;1140990;-67
2022/12/09 09:34:52;;;;;;;35.50;15.30;;;;;;;0.36;100.00;100044.16;5198609;54;1140839;-71
2022/12/09 09:39:58;;;;;;;32.83;15.67;;;;;;;0.39;100.00;100042.73;5121719;55;1140868;-68
2022/12/09 09:45:06;;;;;;;34.17;17.07;;;;;;;0.40;100.00;100038.37;5169367;55;1140820;-69
2022/12/09 09:50:36;;;;;;;38.38;18.73;;;;;;;0.43;100.00;100048.19;5152699;55;1140791;-69
2022/12/09 09:55:53;;;;;;;35.00;16.93;;;;;;;0.51;100.00;100049.98;5206929;54;1140892;-70
2022/12/09 10:01:07;;;;;;;33.42;17.35;;;;;;;0.57;100.00;100051.03;5211469;55;1141258;-69
2022/12/09 10:06:48;;;;;;;34.90;15.43;;;;;;;0.51;100.00;100046.08;5232416;54;1140852;-68
2022/12/09 10:12:01;;;;;;;26.87;13.13;;;;;;;0.48;100.00;100046.21;5167234;55;1141326;-65
2022/12/09 10:17:30;;;;;;;34.92;17.20;;;;;;;0.48;100.00;100051.41;5211162;55;1140925;-67
2022/12/09 10:22:49;;;;;;;50.07;18.93;;;;;;;0.50;100.00;100052.20;5226356;55;1140862;-71
2022/12/09 10:28:03;;;;;;;41.40;19.63;;;;;;;0.57;100.00;100054.94;5246571;54;1141001;-68
2022/12/09 10:33:12;;;;;;;38.37;18.57;;;;;;;0.63;100.00;100044.23;5224887;55;1140918;-72
2022/12/09 10:38:20;;;;;;;45.73;20.33;;;;;;;0.76;100.00;100048.92;5314507;54;1140752;-70
2022/12/09 10:43:34;;;;;;;35.97;18.57;;;;;;;0.89;100.00;100046.14;5293579;54;1140921;-69
2022/12/09 10:48:51;;;;;;;35.17;18.52;;;;;;;0.89;100.00;100046.14;5302398;54;1140860;-70
2022/12/09 10:54:03;;;;;;;35.60;16.75;;;;;;;0.94;100.00;100046.30;5302568;54;1141063;-68
2022/12/09 10:59:31;;;;;;;29.40;15.47;;;;;;;0.98;100.00;100035.30;5132714;55;1140820;-73
2022/12/09 11:04:43;;;;;;;35.03;22.07;;;;;;;0.98;100.00;100035.30;5282503;54;1140772;-71
2022/12/09 11:09:59;;;;;;;24.20;12.60;;;;;;;1.01;100.00;100032.56;5211913;55;1140815;-65
2022/12/09 11:15:21;;;;;;;33.37;19.23;;;;;;;1.07;100.00;100036.16;5111104;56;1141004;-72
2022/12/09 11:20:30;;;;;;;27.53;12.50;;;;;;;1.11;100.00;100029.91;5250892;54;1141133;-71
2022/12/09 11:25:40;;;;;;;25.40;11.43;;;;;;;1.12;100.00;100027.69;5211707;54;1140894;-70
2022/12/09 11:31:01;;;;;;;25.47;14.57;;;;;;;1.06;100.00;100022.78;5282347;54;1140840;-68
2022/12/09 11:36:12;;;;;;;36.53;17.73;;;;;;;1.05;100.00;100022.39;5238901;54;1140900;-68
2022/12/09 11:47:04;;;;;;;37.83;19.47;;;;;;;1.16;100.00;100011.47;5244868;54;1140941;-70
2022/12/09 11:52:23;;;;;;;57.63;30.13;;;;;;;1.23;100.00;100011.55;5206626;55;1140755;-67
2022/12/09 11:57:57;;;;;;;23.85;13.83;;;;;;;1.21;100.00;100009.50;5217386;54;1140699;-71
2022/12/09 12:03:20;;;;;;;19.27;12.50;;;;;;;1.19;100.00;100004.81;5196565;55;1140870;-71
2022/12/09 12:08:49;;;;;;;25.33;13.60;;;;;;;1.24;100.00;100009.33;5255689;54;1140867;-68
2022/12/09 12:14:04;;;;;;;32.30;19.77;;;;;;;1.20;100.00;100009.95;5210601;54;1140910;-71
2022/12/09 12:19:38;;;;;;;34.00;16.47;;;;;;;1.12;100.00;99999.04;5221415;54;1140878;-70
2022/12/09 12:25:15;;;;;;;38.63;18.20;;;;;;;1.14;100.00;99995.91;5139301;55;1138857;-69
2022/12/09 12:30:30;;;;;;;33.03;18.80;;;;;;;1.20;100.00;99991.73;5203227;55;1138654;-66
2022/12/09 12:35:54;;;;;;;38.35;20.97;;;;;;;1.15;100.00;99988.48;5189510;54;1138844;-68
2022/12/09 12:41:36;;;;;;;36.50;18.30;;;;;;;1.15;100.00;99982.43;5213288;54;1138887;-69
2022/12/09 12:46:55;;;;;;;32.43;18.17;;;;;;;1.13;100.00;99975.99;5185016;55;1138987;-72
2022/12/09 12:52:34;;;;;;;35.67;16.47;;;;;;;1.11;100.00;99979.13;5210253;54;1138690;-67
2022/12/09 12:58:01;;;;;;;32.87;14.47;;;;;;;1.09;100.00;99973.14;5186427;55;1138734;-67
2022/12/09 13:03:28;;;;;;;34.90;16.80;;;;;;;1.07;100.00;99970.25;5215576;54;1138872;-71
2022/12/09 13:08:59;;;;;;;35.90;14.57;;;;;;;1.08;100.00;99976.66;5206072;55;1138765;-71
2022/12/09 13:14:11;;;;;;;34.90;16.00;;;;;;;1.10;100.00;99989.15;5207574;54;1138640;-69
2022/12/09 13:19:49;;;;;;;46.30;17.50;;;;;;;1.04;100.00;99991.61;5189778;54;1138783;-71
2022/12/09 13:25:26;;;;;;;37.35;17.02;;;;;;;1.06;100.00;99978.52;5165230;55;1138857;-72
2022/12/09 13:30:54;;;;;;;25.33;12.77;;;;;;;1.08;100.00;99959.73;5129317;55;1138751;-71
2022/12/09 13:36:16;;;;;;;30.27;15.13;;;;;;;1.12;100.00;99970.39;5143215;55;1138933;-66
2022/12/09 13:42:51;;;;;;;31.03;15.57;;;;;;;1.15;100.00;99979.83;5213218;54;1138799;-68
2022/12/09 13:46:41;;;;;;;36.03;17.83;;;;;;;1.10;100.00;99981.80;5197473;55;1138811;-71
2022/12/09 13:51:52;;;;;;;33.53;16.57;;;;;;;1.00;100.00;99983.55;5189217;55;1138919;-69
2022/12/09 13:57:23;;;;;;;25.97;13.93;;;;;;;0.95;100.00;99976.39;5160602;55;1138779;-68
2022/12/09 14:02:51;;;;;;;27.63;14.30;;;;;;;0.88;100.00;99982.82;5168839;55;1138700;-68
2022/12/09 14:08:19;;;;;;;25.68;15.00;;;;;;;0.78;100.00;99984.59;5139981;55;1138842;-67
2022/12/09 14:13:29;;;;;;;30.97;15.73;;;;;;;0.73;100.00;99988.73;5197823;54;1138883;-65
2022/12/09 14:18:35;;;;;;;40.03;19.00;;;;;;;0.68;100.00;99996.74;5093311;55;1138976;-73
2022/12/09 14:23:40;;;;;;;36.57;19.10;;;;;;;0.66;100.00;100008.12;5092503;55;1138898;-67
2022/12/09 14:28:55;;;;;;;53.25;29.45;;;;;;;0.61;100.00;100008.33;5040290;55;1141166;-69
2022/12/09 14:34:01;;;;;;;34.77;17.30;;;;;;;0.59;100.00;100006.28;5033322;56;1140897;-68
2022/12/09 14:39:23;;;;;;;85.38;50.67;;;;;;;0.57;100.00;100013.30;5114740;54;1140840;-71
2022/12/09 14:44:58;;;;;;;237.63;143.53;;;;;;;0.59;100.00;100017.14;5021826;56;1140892;-70
2022/12/09 14:50:14;;;;;;;77.85;27.48;;;;;;;0.56;100.00;100009.01;5123214;55;1145181;-71
2022/12/09 14:55:22;;;;;;;36.83;18.97;;;;;;;0.51;100.00;100007.06;5141963;55;1140813;-66
2022/12/09 15:00:40;;;;;;;33.10;17.80;;;;;;;0.48;100.00;100008.95;5130894;55;1140655;-69
2022/12/09 15:06:06;;;;;;;42.27;21.15;;;;;;;0.43;100.00;100006.57;5077258;55;1140917;-69
2022/12/09 15:11:22;;;;;;;35.53;17.63;;;;;;;0.40;100.00;100001.50;5112228;55;1140749;-69
2022/12/09 15:16:28;;;;;;;42.07;21.90;;;;;;;0.41;100.00;100006.24;5115823;55;1140961;-67
2022/12/09 15:21:33;;;;;;;35.43;19.12;;;;;;;0.40;100.00;100009.30;5135840;56;1140959;-68
2022/12/09 15:26:39;;;;;;;41.30;21.43;;;;;;;0.42;100.00;100001.43;5115958;56;1140952;-68
2022/12/09 15:31:52;;;;;;;35.20;18.47;;;;;;;0.41;100.00;99998.44;5169885;54;1140793;-70
2022/12/09 15:37:04;;;;;;;43.68;21.90;;;;;;;0.39;100.00;99993.76;5177832;54;1138818;-69
2022/12/09 15:42:14;;;;;;;46.10;21.70;;;;;;;0.35;100.00;99995.19;5203967;55;1138625;-70
2022/12/09 15:47:26;;;;;;;45.43;22.23;;;;;;;0.35;100.00;99991.28;5167777;55;1138947;-67
2022/12/09 15:52:39;;;;;;;47.00;21.27;;;;;;;0.39;100.00;99982.90;5158351;55;1138759;-72
2022/12/09 15:57:47;;;;;;;42.90;20.97;;;;;;;0.44;100.00;99973.14;5175395;55;1138807;-68
2022/12/09 16:02:53;;;;;;;46.33;20.97;;;;;;;0.49;100.00;99970.31;5159226;55;1138903;-70
2022/12/09 16:08:01;;;;;;;53.28;25.97;;;;;;;0.52;100.00;99971.02;5002819;56;1138959;-67
2022/12/09 16:13:14;;;;;;;69.40;31.10;;;;;;;0.53;100.00;99958.41;5005055;56;1138911;-73
2022/12/09 16:18:36;;;;;;;75.10;33.80;;;;;;;0.54;100.00;99956.65;4994490;56;1138818;-67
2022/12/09 16:23:45;;;;;;;71.50;30.57;;;;;;;0.57;100.00;99957.36;5129127;55;1138759;-68
2022/12/09 16:29:01;;;;;;;61.95;30.55;;;;;;;0.58;100.00;99966.86;5102859;55;1139017;-68
2022/12/09 16:34:16;;;;;;;88.43;39.03;;;;;;;0.53;100.00;99962.31;5158542;54;1138887;-70
2022/12/09 16:39:29;;;;;;;100.43;46.43;;;;;;;0.48;100.00;99963.42;5141190;54;1138682;-67
2022/12/09 16:44:38;;;;;;;77.30;37.70;;;;;;;0.52;100.00;99953.27;5131369;55;1140935;-72
2022/12/09 16:49:49;;;;;;;82.80;37.57;;;;;;;0.63;100.00;99964.02;5162706;54;1138736;-71
2022/12/09 16:54:54;;;;;;;81.70;38.30;;;;;;;0.58;100.00;99960.81;5127944;55;1138812;-70
2022/12/09 17:00:00;;;;;;;94.40;46.15;;;;;;;0.61;100.00;99954.98;5173675;54;1138761;-69
2022/12/09 17:05:07;;;;;;;104.80;53.60;;;;;;;0.65;100.00;99955.69;5149617;54;1138944;-70
2022/12/09 17:10:16;;;;;;;100.23;50.13;;;;;;;0.58;100.00;99955.61;5140090;55;1140836;-68
2022/12/09 17:15:22;;;;;;;82.20;43.63;;;;;;;0.50;100.00;99959.84;5248840;54;1140840;-70
2022/12/09 17:20:27;;;;;;;83.90;39.43;;;;;;;0.46;100.00;99960.07;5241248;54;1138627;-73
2022/12/09 17:25:33;;;;;;;77.70;40.30;;;;;;;0.41;100.00;99960.27;5131411;54;1138656;-69
2022/12/09 17:30:39;;;;;;;83.90;41.67;;;;;;;0.37;100.00;99959.16;5127652;55;1138659;-69
2022/12/09 17:35:45;;;;;;;99.50;47.85;;;;;;;0.28;100.00;99959.98;5193637;54;1138849;-70
2022/12/09 17:40:51;;;;;;;87.60;43.37;;;;;;;0.24;100.00;99964.07;5233364;54;1138810;-71
2022/12/09 17:46:03;;;;;;;101.17;48.90;;;;;;;0.22;100.00;99965.89;5299115;54;1139020;-73
2022/12/09 17:51:12;;;;;;;83.77;35.73;;;;;;;0.15;100.00;99964.48;5220758;54;1141125;-69
2022/12/09 17:56:21;;;;;;;75.50;33.67;;;;;;;0.12;100.00;99969.81;5184007;55;1138710;-72
2022/12/09 18:01:27;;;;;;;81.03;39.00;;;;;;;0.09;100.00;99962.14;5195963;54;1138608;-69
2022/12/09 18:06:33;;;;;;;72.27;33.83;;;;;;;-0.01;100.00;99953.45;5198461;55;1138912;-71
2022/12/09 18:11:40;;;;;;;73.60;33.73;;;;;;;-0.07;100.00;99971.91;5197475;54;1140905;-66
2022/12/09 18:16:47;;;;;;;58.33;29.33;;;;;;;-0.06;100.00;99968.85;5203971;54;1140886;-71
2022/12/09 18:21:55;;;;;;;64.72;30.75;;;;;;;-0.11;100.00;99965.14;5204106;54;1140971;-70
2022/12/09 18:27:01;;;;;;;68.30;32.43;;;;;;;-0.06;100.00;99973.59;5219872;54;1140805;-72
2022/12/09 18:32:07;;;;;;;73.02;32.35;;;;;;;-0.03;100.00;99966.12;5053413;56;1140942;-70
2022/12/09 18:37:13;;;;;;;71.97;34.13;;;;;;;-0.02;100.00;99973.02;5141655;54;1140830;-70
2022/12/09 18:42:18;;;;;;;66.50;29.90;;;;;;;-0.01;100.00;99972.95;5211412;54;1141013;-67
2022/12/09 18:47:24;;;;;;;68.27;33.20;;;;;;;0.03;100.00;99972.80;5181807;54;1140868;-70
2022/12/09 18:52:30;;;;;;;115.50;41.30;;;;;;;0.04;100.00;99970.13;5103808;55;1138805;-69
2022/12/09 18:57:36;;;;;;;97.47;39.10;;;;;;;0.07;100.00;99971.30;5123159;55;1140826;-71
2022/12/09 19:02:43;;;;;;;93.50;37.63;;;;;;;0.12;100.00;99968.52;5162919;55;1138774;-71
2022/12/09 19:07:48;;;;;;;207.53;67.87;;;;;;;0.11;100.00;99965.52;5172837;54;1138826;-66
2022/12/09 19:12:56;;;;;;;369.30;112.80;;;;;;;0.09;100.00;99968.19;5122660;54;1141053;-69
2022/12/09 19:18:01;;;;;;;74.45;32.48;;;;;;;0.09;100.00;99968.64;5125130;54;1142988;-71
2022/12/09 19:23:08;;;;;;;76.70;33.27;;;;;;;0.10;100.00;99967.28;5128679;55;1138822;-70
2022/12/09 19:28:14;;;;;;;98.57;40.77;;;;;;;0.11;100.00;99975.47;5164834;55;1138892;-68
2022/12/09 19:33:20;;;;;;;106.43;43.67;;;;;;;0.13;100.00;99968.91;5178236;55;1138717;-72
2022/12/09 19:38:26;;;;;;;87.40;42.37;;;;;;;0.11;100.00;99966.83;5209998;54;1140816;-66
2022/12/09 19:43:34;;;;;;;66.13;30.30;;;;;;;0.10;100.00;99968.58;5298745;54;1138707;-69
2022/12/09 19:48:43;;;;;;;71.70;31.67;;;;;;;0.13;100.00;99972.80;5180992;55;1138711;-71
2022/12/09 19:53:49;;;;;;;86.47;35.87;;;;;;;0.09;100.00;99957.79;5197120;55;1138790;-68
2022/12/09 19:58:56;;;;;;;78.92;35.28;;;;;;;0.10;100.00;99958.18;5203256;54;1138752;-68
2022/12/09 20:04:05;;;;;;;72.37;35.60;;;;;;;0.16;100.00;99966.99;5142548;55;1138816;-69
2022/12/09 20:09:16;;;;;;;71.95;31.52;;;;;;;0.20;100.00;99971.16;5247745;54;1138747;-73
2022/12/09 20:14:22;;;;;;;81.60;33.67;;;;;;;0.18;100.00;99958.67;5195940;54;1138758;-68
2022/12/09 20:19:27;;;;;;;79.30;34.53;;;;;;;0.19;100.00;99964.27;5177501;55;1138671;-71
2022/12/09 20:24:34;;;;;;;73.27;33.90;;;;;;;0.16;100.00;99953.99;5211954;54;1138988;-66
2022/12/09 20:29:41;;;;;;;72.67;31.90;;;;;;;0.17;100.00;99962.64;5171491;54;1138786;-70
2022/12/09 20:34:50;;;;;;;82.42;34.48;;;;;;;0.22;100.00;99958.09;5131566;55;1138759;-68
2022/12/09 20:39:55;;;;;;;78.90;34.10;;;;;;;0.22;100.00;99958.09;5205277;54;1138758;-70
2022/12/09 20:45:01;;;;;;;99.60;40.60;;;;;;;0.24;100.00;99957.12;5199354;55;1138812;-68
2022/12/09 20:50:08;;;;;;;80.07;31.43;;;;;;;0.22;100.00;99964.13;5178874;54;1138789;-70
2022/12/09 20:55:14;;;;;;;91.70;37.57;;;;;;;0.22;100.00;99960.23;5179135;54;1138816;-68
2022/12/09 21:00:21;;;;;;;87.10;36.40;;;;;;;0.21;100.00;99963.74;5212866;54;1138849;-67
2022/12/09 21:05:27;;;;;;;85.07;36.07;;;;;;;0.23;100.00;99958.48;5254623;54;1138762;-69
2022/12/09 21:10:33;;;;;;;91.10;36.93;;;;;;;0.21;100.00;99960.30;5173346;55;1138913;-67
2022/12/09 21:15:38;;;;;;;99.20;40.10;;;;;;;0.17;100.00;99963.48;5191516;55;1138810;-67
2022/12/09 21:20:45;;;;;;;119.28;45.55;;;;;;;0.17;100.00;99956.14;5177740;55;1138874;-70
2022/12/09 21:25:51;;;;;;;98.37;39.23;;;;;;;0.20;100.00;99958.61;5150536;55;1140796;-68
2022/12/09 21:30:57;;;;;;;111.80;46.60;;;;;;;0.23;100.00;99949.38;5187400;55;1138797;-71
2022/12/09 21:36:05;;;;;;;89.40;36.48;;;;;;;0.24;100.00;99948.02;5167980;55;1141027;-70
2022/12/09 21:41:18;;;;;;;108.43;42.23;;;;;;;0.25;100.00;99950.16;5212418;54;1138890;-70
2022/12/09 21:46:33;;;;;;;98.77;36.07;;;;;;;0.22;100.00;99948.98;5217878;54;1140969;-70
2022/12/09 21:51:40;;;;;;;99.93;38.83;;;;;;;0.23;100.00;99950.67;5197230;55;1138688;-68
2022/12/09 21:56:46;;;;;;;97.67;42.53;;;;;;;0.22;100.00;99950.28;5139882;55;1138726;-70
2022/12/09 22:01:52;;;;;;;95.53;38.63;;;;;;;0.29;100.00;99955.16;5167714;54;1138716;-68
2022/12/09 22:06:57;;;;;;;85.92;36.00;;;;;;;0.27;100.00;99952.23;5211074;55;1138924;-71
2022/12/09 22:12:03;;;;;;;107.80;42.30;;;;;;;0.21;100.00;99954.64;5289965;54;1138730;-68
2022/12/09 22:17:09;;;;;;;98.07;36.50;;;;;;;0.21;100.00;99954.64;5262511;54;1141211;-72
2022/12/09 22:22:15;;;;;;;95.80;39.50;;;;;;;0.24;100.00;99951.91;5196847;54;1138713;-71
2022/12/09 22:27:21;;;;;;;93.10;38.90;;;;;;;0.25;100.00;99963.16;5213808;55;1139026;-68
2022/12/09 22:32:30;;;;;;;93.87;40.07;;;;;;;0.28;100.00;99959.13;5200310;55;1138712;-68
2022/12/09 22:37:35;;;;;;;102.80;43.70;;;;;;;0.30;100.00;99958.61;5222979;54;1138638;-71
2022/12/09 22:42:41;;;;;;;90.70;39.20;;;;;;;0.30;100.00;99952.95;5217814;55;1141114;-68
2022/12/09 22:47:46;;;;;;;101.93;41.83;;;;;;;0.34;100.00;99951.03;5173898;55;1139132;-70
2022/12/09 22:52:52;;;;;;;94.30;40.87;;;;;;;0.35;100.00;99954.87;5189057;55;1140950;-70
2022/12/09 22:57:58;;;;;;;90.17;39.42;;;;;;;0.39;100.00;99948.23;5182034;55;1138737;-69
2022/12/09 23:03:03;;;;;;;96.33;41.03;;;;;;;0.40;100.00;99953.83;5195091;55;1138597;-67
2022/12/09 23:08:11;;;;;;;89.07;37.03;;;;;;;0.39;100.00;99956.04;5185418;54;1138843;-70
2022/12/09 23:13:16;;;;;;;101.43;42.20;;;;;;;0.33;100.00;99955.39;5206280;54;1138704;-71
2022/12/09 23:18:22;;;;;;;101.50;44.97;;;;;;;0.35;100.00;99958.77;5198115;55;1141075;-72